sensor_id;sensor_type;location;lat;lon;timestamp;temperature;humidity
24207;DHT22;12351;52.284;9.160;2023-06-14T00:00:21;19.60;1.00
24207;DHT22;12351;52.284;9.160;2023-06-14T00:03:09;19.60;99.90
24207;DHT22;12351;52.284;9.160;2023-06-14T00:05:57;19.60;1.00
24207;DHT22;12351;52.284;9.160;2023-06-14T00:08:45;19.60;1.00
24207;DHT22;12351;52.284;9.160;2023-06-14T00:11:34;19.60;1.00
24207;DHT22;12351;52.284;9.160;2023-06-14T00:14:22;19.50;1.00
24207;DHT22;12351;52.284;9.160;2023-06-14T00:17:10;19.50;1.00
24207;DHT22;12351;52.284;9.160;2023-06-14T00:19:58;19.40;1.00
24207;DHT22;12351;52.284;9.160;2023-06-14T00:22:46;19.30;1.00
24207;DHT22;12351;52.284;9.160;2023-06-14T00:25:34;19.40;1.00
24207;DHT22;12351;52.284;9.160;2023-06-14T00:28:22;19.30;1.00
24207;DHT22;12351;52.284;9.160;2023-06-14T00:31:10;19.30;1.00
24207;DHT22;12351;52.284;9.160;2023-06-14T00:33:57;19.30;1.00
24207;DHT22;12351;52.284;9.160;2023-06-14T00:36:46;19.10;1.00
24207;DHT22;12351;52.284;9.160;2023-06-14T00:39:38;19.10;1.00
24207;DHT22;12351;52.284;9.160;2023-06-14T00:42:27;19.10;1.00
24207;DHT22;12351;52.284;9.160;2023-06-14T00:45:15;19.00;1.00
24207;DHT22;12351;52.284;9.160;2023-06-14T00:48:04;19.00;1.00
24207;DHT22;12351;52.284;9.160;2023-06-14T00:50:54;18.70;1.00
24207;DHT22;12351;52.284;9.160;2023-06-14T00:53:42;18.80;1.00
24207;DHT22;12351;52.284;9.160;2023-06-14T00:56:31;18.70;1.00
24207;DHT22;12351;52.284;9.160;2023-06-14T00:59:19;18.70;1.00
24207;DHT22;12351;52.284;9.160;2023-06-14T01:02:07;18.80;1.00
24207;DHT22;12351;52.284;9.160;2023-06-14T01:04:58;18.80;1.00
24207;DHT22;12351;52.284;9.160;2023-06-14T01:10:41;18.70;1.00
24207;DHT22;12351;52.284;9.160;2023-06-14T01:13:32;18.60;1.00
24207;DHT22;12351;52.284;9.160;2023-06-14T01:16:18;18.60;1.00
24207;DHT22;12351;52.284;9.160;2023-06-14T01:19:09;18.60;1.00
24207;DHT22;12351;52.284;9.160;2023-06-14T01:22:00;18.70;1.00
24207;DHT22;12351;52.284;9.160;2023-06-14T01:24:48;18.70;1.00
24207;DHT22;12351;52.284;9.160;2023-06-14T01:27:37;18.60;1.00
24207;DHT22;12351;52.284;9.160;2023-06-14T01:30:24;18.50;1.00
24207;DHT22;12351;52.284;9.160;2023-06-14T01:36:54;18.10;1.00
24207;DHT22;12351;52.284;9.160;2023-06-14T01:39:43;18.30;1.00
24207;DHT22;12351;52.284;9.160;2023-06-14T01:42:30;18.30;1.00
24207;DHT22;12351;52.284;9.160;2023-06-14T01:45:20;18.30;1.00
24207;DHT22;12351;52.284;9.160;2023-06-14T01:48:09;18.20;1.00
24207;DHT22;12351;52.284;9.160;2023-06-14T01:50:58;18.10;1.00
24207;DHT22;12351;52.284;9.160;2023-06-14T01:53:45;18.20;1.00
24207;DHT22;12351;52.284;9.160;2023-06-14T02:00:15;18.30;1.00
24207;DHT22;12351;52.284;9.160;2023-06-14T02:03:05;18.20;1.00
24207;DHT22;12351;52.284;9.160;2023-06-14T02:05:52;18.20;1.00
24207;DHT22;12351;52.284;9.160;2023-06-14T02:12:21;18.20;1.00
24207;DHT22;12351;52.284;9.160;2023-06-14T02:18:49;18.00;1.00
24207;DHT22;12351;52.284;9.160;2023-06-14T02:25:18;18.00;1.00
24207;DHT22;12351;52.284;9.160;2023-06-14T02:31:47;17.90;1.00
24207;DHT22;12351;52.284;9.160;2023-06-14T02:34:36;17.90;1.00
24207;DHT22;12351;52.284;9.160;2023-06-14T02:37:25;17.80;1.00
24207;DHT22;12351;52.284;9.160;2023-06-14T02:43:54;17.70;1.00
24207;DHT22;12351;52.284;9.160;2023-06-14T02:46:43;17.60;1.00
24207;DHT22;12351;52.284;9.160;2023-06-14T02:49:31;17.50;1.00
24207;DHT22;12351;52.284;9.160;2023-06-14T02:52:19;17.50;1.00
24207;DHT22;12351;52.284;9.160;2023-06-14T02:55:07;17.40;1.00
24207;DHT22;12351;52.284;9.160;2023-06-14T03:01:37;17.40;1.00
24207;DHT22;12351;52.284;9.160;2023-06-14T03:08:07;17.30;1.00
24207;DHT22;12351;52.284;9.160;2023-06-14T03:10:55;17.20;1.00
24207;DHT22;12351;52.284;9.160;2023-06-14T03:13:42;17.20;1.00
24207;DHT22;12351;52.284;9.160;2023-06-14T03:16:31;17.10;1.00
24207;DHT22;12351;52.284;9.160;2023-06-14T03:19:18;17.10;1.00
24207;DHT22;12351;52.284;9.160;2023-06-14T03:22:06;17.00;1.00
24207;DHT22;12351;52.284;9.160;2023-06-14T03:24:54;17.00;1.00
24207;DHT22;12351;52.284;9.160;2023-06-14T03:31:23;17.00;1.00
24207;DHT22;12351;52.284;9.160;2023-06-14T03:37:51;17.80;1.00
24207;DHT22;12351;52.284;9.160;2023-06-14T03:44:21;18.00;1.00
24207;DHT22;12351;52.284;9.160;2023-06-14T03:50:51;17.20;1.00
24207;DHT22;12351;52.284;9.160;2023-06-14T03:57:21;17.10;1.00
24207;DHT22;12351;52.284;9.160;2023-06-14T04:00:10;17.10;1.00
24207;DHT22;12351;52.284;9.160;2023-06-14T04:02:59;17.10;1.00
24207;DHT22;12351;52.284;9.160;2023-06-14T04:09:27;17.10;1.00
24207;DHT22;12351;52.284;9.160;2023-06-14T04:12:22;17.10;1.00
24207;DHT22;12351;52.284;9.160;2023-06-14T04:15:11;17.20;1.00
24207;DHT22;12351;52.284;9.160;2023-06-14T04:18:17;17.10;1.00
24207;DHT22;12351;52.284;9.160;2023-06-14T04:21:06;17.10;1.00
24207;DHT22;12351;52.284;9.160;2023-06-14T04:23:56;17.20;1.00
24207;DHT22;12351;52.284;9.160;2023-06-14T04:30:23;17.20;1.00
24207;DHT22;12351;52.284;9.160;2023-06-14T04:36:53;17.30;1.00
24207;DHT22;12351;52.284;9.160;2023-06-14T04:43:22;17.20;1.00
24207;DHT22;12351;52.284;9.160;2023-06-14T04:49:52;17.30;1.00
24207;DHT22;12351;52.284;9.160;2023-06-14T04:56:21;17.40;1.00
24207;DHT22;12351;52.284;9.160;2023-06-14T04:59:09;17.40;1.00
24207;DHT22;12351;52.284;9.160;2023-06-14T05:01:58;17.10;1.00
24207;DHT22;12351;52.284;9.160;2023-06-14T05:04:46;17.20;1.00
24207;DHT22;12351;52.284;9.160;2023-06-14T05:07:33;17.40;1.00
24207;DHT22;12351;52.284;9.160;2023-06-14T05:13:52;17.60;1.00
24207;DHT22;12351;52.284;9.160;2023-06-14T05:16:42;17.60;1.00
24207;DHT22;12351;52.284;9.160;2023-06-14T05:19:29;17.70;1.00
24207;DHT22;12351;52.284;9.160;2023-06-14T05:25:56;17.80;1.00
24207;DHT22;12351;52.284;9.160;2023-06-14T05:32:25;17.70;1.00
24207;DHT22;12351;52.284;9.160;2023-06-14T05:35:12;17.80;1.00
24207;DHT22;12351;52.284;9.160;2023-06-14T05:38:00;17.30;1.00
24207;DHT22;12351;52.284;9.160;2023-06-14T05:40:48;17.50;1.00
24207;DHT22;12351;52.284;9.160;2023-06-14T05:43:36;17.50;1.00
24207;DHT22;12351;52.284;9.160;2023-06-14T05:46:24;17.10;1.00
24207;DHT22;12351;52.284;9.160;2023-06-14T05:49:11;17.20;1.00
24207;DHT22;12351;52.284;9.160;2023-06-14T05:51:58;17.40;1.00
24207;DHT22;12351;52.284;9.160;2023-06-14T05:54:46;17.50;1.00
24207;DHT22;12351;52.284;9.160;2023-06-14T05:57:35;17.10;1.00
24207;DHT22;12351;52.284;9.160;2023-06-14T06:00:21;17.30;1.00
24207;DHT22;12351;52.284;9.160;2023-06-14T06:03:09;17.50;1.00
24207;DHT22;12351;52.284;9.160;2023-06-14T06:05:58;17.30;1.00
24207;DHT22;12351;52.284;9.160;2023-06-14T06:08:47;17.50;1.00
24207;DHT22;12351;52.284;9.160;2023-06-14T06:11:35;17.70;1.00
24207;DHT22;12351;52.284;9.160;2023-06-14T06:18:03;17.60;1.00
24207;DHT22;12351;52.284;9.160;2023-06-14T06:24:21;17.30;1.00
24207;DHT22;12351;52.284;9.160;2023-06-14T06:30:49;17.90;1.00
24207;DHT22;12351;52.284;9.160;2023-06-14T06:33:37;17.80;1.00
24207;DHT22;12351;52.284;9.160;2023-06-14T06:36:26;17.50;1.00
24207;DHT22;12351;52.284;9.160;2023-06-14T06:42:54;17.70;1.00
24207;DHT22;12351;52.284;9.160;2023-06-14T06:45:42;17.40;1.00
24207;DHT22;12351;52.284;9.160;2023-06-14T06:48:29;17.60;1.00
24207;DHT22;12351;52.284;9.160;2023-06-14T06:51:19;17.50;1.00
24207;DHT22;12351;52.284;9.160;2023-06-14T06:54:06;17.70;1.00
24207;DHT22;12351;52.284;9.160;2023-06-14T07:00:34;18.10;1.00
24207;DHT22;12351;52.284;9.160;2023-06-14T07:03:22;17.90;1.00
24207;DHT22;12351;52.284;9.160;2023-06-14T07:06:10;18.00;1.00
24207;DHT22;12351;52.284;9.160;2023-06-14T07:12:39;18.10;1.00
24207;DHT22;12351;52.284;9.160;2023-06-14T07:15:40;18.20;1.00
24207;DHT22;12351;52.284;9.160;2023-06-14T07:18:28;17.90;1.00
24207;DHT22;12351;52.284;9.160;2023-06-14T07:21:15;17.90;1.00
24207;DHT22;12351;52.284;9.160;2023-06-14T07:27:45;18.50;1.00
24207;DHT22;12351;52.284;9.160;2023-06-14T07:30:31;18.00;1.00
24207;DHT22;12351;52.284;9.160;2023-06-14T07:33:20;18.30;1.00
24207;DHT22;12351;52.284;9.160;2023-06-14T07:36:08;18.10;1.00
24207;DHT22;12351;52.284;9.160;2023-06-14T07:38:56;18.20;1.00
24207;DHT22;12351;52.284;9.160;2023-06-14T07:41:45;18.10;1.00
24207;DHT22;12351;52.284;9.160;2023-06-14T07:44:32;18.00;1.00
24207;DHT22;12351;52.284;9.160;2023-06-14T07:47:21;18.20;1.00
24207;DHT22;12351;52.284;9.160;2023-06-14T07:50:09;18.20;1.00
24207;DHT22;12351;52.284;9.160;2023-06-14T07:56:37;18.10;1.00
24207;DHT22;12351;52.284;9.160;2023-06-14T07:59:25;18.40;1.00
24207;DHT22;12351;52.284;9.160;2023-06-14T08:02:14;18.60;1.00
24207;DHT22;12351;52.284;9.160;2023-06-14T08:08:43;18.80;1.00
24207;DHT22;12351;52.284;9.160;2023-06-14T08:15:12;18.90;1.00
24207;DHT22;12351;52.284;9.160;2023-06-14T08:18:00;19.00;1.00
24207;DHT22;12351;52.284;9.160;2023-06-14T08:24:27;18.80;1.00
24207;DHT22;12351;52.284;9.160;2023-06-14T08:27:16;19.00;1.00
24207;DHT22;12351;52.284;9.160;2023-06-14T08:30:03;19.20;1.00
24207;DHT22;12351;52.284;9.160;2023-06-14T08:36:32;19.20;1.00
24207;DHT22;12351;52.284;9.160;2023-06-14T08:39:19;18.80;1.00
24207;DHT22;12351;52.284;9.160;2023-06-14T08:42:09;19.40;1.00
24207;DHT22;12351;52.284;9.160;2023-06-14T08:48:38;19.40;1.00
24207;DHT22;12351;52.284;9.160;2023-06-14T08:55:09;19.60;1.00
24207;DHT22;12351;52.284;9.160;2023-06-14T08:57:58;19.70;1.00
24207;DHT22;12351;52.284;9.160;2023-06-14T09:00:46;19.80;1.00
24207;DHT22;12351;52.284;9.160;2023-06-14T09:03:33;19.60;1.00
24207;DHT22;12351;52.284;9.160;2023-06-14T09:06:23;19.20;1.00
24207;DHT22;12351;52.284;9.160;2023-06-14T09:12:51;19.30;1.00
24207;DHT22;12351;52.284;9.160;2023-06-14T09:15:39;19.70;1.00
24207;DHT22;12351;52.284;9.160;2023-06-14T09:18:40;19.50;1.00
24207;DHT22;12351;52.284;9.160;2023-06-14T09:25:09;19.50;1.00
24207;DHT22;12351;52.284;9.160;2023-06-14T09:31:39;19.80;1.00
24207;DHT22;12351;52.284;9.160;2023-06-14T09:34:27;20.00;1.00
24207;DHT22;12351;52.284;9.160;2023-06-14T09:37:17;20.00;1.00
24207;DHT22;12351;52.284;9.160;2023-06-14T09:40:03;20.00;1.00
24207;DHT22;12351;52.284;9.160;2023-06-14T09:42:52;19.80;1.00
24207;DHT22;12351;52.284;9.160;2023-06-14T09:45:39;20.00;1.00
24207;DHT22;12351;52.284;9.160;2023-06-14T09:48:26;20.10;1.00
24207;DHT22;12351;52.284;9.160;2023-06-14T09:51:16;20.40;1.00
24207;DHT22;12351;52.284;9.160;2023-06-14T09:54:05;20.30;1.00
24207;DHT22;12351;52.284;9.160;2023-06-14T09:56:53;20.30;1.00
24207;DHT22;12351;52.284;9.160;2023-06-14T09:59:44;20.30;1.00
24207;DHT22;12351;52.284;9.160;2023-06-14T10:02:35;20.40;1.00
24207;DHT22;12351;52.284;9.160;2023-06-14T10:05:25;20.60;1.00
24207;DHT22;12351;52.284;9.160;2023-06-14T10:11:56;20.70;1.00
24207;DHT22;12351;52.284;9.160;2023-06-14T10:14:43;20.90;1.00
24207;DHT22;12351;52.284;9.160;2023-06-14T10:17:35;20.90;1.00
24207;DHT22;12351;52.284;9.160;2023-06-14T10:20:26;20.70;1.00
24207;DHT22;12351;52.284;9.160;2023-06-14T10:23:17;20.80;1.00
24207;DHT22;12351;52.284;9.160;2023-06-14T10:32:34;20.80;1.00
24207;DHT22;12351;52.284;9.160;2023-06-14T10:35:21;20.90;1.00
24207;DHT22;12351;52.284;9.160;2023-06-14T10:41:52;21.30;1.00
24207;DHT22;12351;52.284;9.160;2023-06-14T10:44:43;21.10;1.00
24207;DHT22;12351;52.284;9.160;2023-06-14T10:47:32;21.40;1.00
24207;DHT22;12351;52.284;9.160;2023-06-14T10:50:27;21.50;1.00
24207;DHT22;12351;52.284;9.160;2023-06-14T10:56:06;21.70;1.00
24207;DHT22;12351;52.284;9.160;2023-06-14T10:58:51;21.90;1.00
24207;DHT22;12351;52.284;9.160;2023-06-14T11:05:24;21.60;1.00
24207;DHT22;12351;52.284;9.160;2023-06-14T11:10:51;21.80;1.00
24207;DHT22;12351;52.284;9.160;2023-06-14T11:13:42;21.80;1.00
24207;DHT22;12351;52.284;9.160;2023-06-14T11:16:30;21.90;1.00
24207;DHT22;12351;52.284;9.160;2023-06-14T11:19:19;21.60;1.00
24207;DHT22;12351;52.284;9.160;2023-06-14T11:22:06;21.60;1.00
24207;DHT22;12351;52.284;9.160;2023-06-14T11:24:55;21.70;1.00
24207;DHT22;12351;52.284;9.160;2023-06-14T11:27:44;21.90;1.00
24207;DHT22;12351;52.284;9.160;2023-06-14T11:30:32;22.10;1.00
24207;DHT22;12351;52.284;9.160;2023-06-14T11:33:20;22.00;1.00
24207;DHT22;12351;52.284;9.160;2023-06-14T11:36:08;21.80;1.00
24207;DHT22;12351;52.284;9.160;2023-06-14T11:38:59;21.90;1.00
24207;DHT22;12351;52.284;9.160;2023-06-14T11:41:47;22.00;1.00
24207;DHT22;12351;52.284;9.160;2023-06-14T11:44:34;22.00;1.00
24207;DHT22;12351;52.284;9.160;2023-06-14T11:47:21;22.20;1.00
24207;DHT22;12351;52.284;9.160;2023-06-14T11:50:10;22.10;1.00
24207;DHT22;12351;52.284;9.160;2023-06-14T11:52:59;22.30;1.00
24207;DHT22;12351;52.284;9.160;2023-06-14T11:55:49;22.20;1.00
24207;DHT22;12351;52.284;9.160;2023-06-14T11:58:37;22.30;1.00
24207;DHT22;12351;52.284;9.160;2023-06-14T12:01:25;22.20;1.00
24207;DHT22;12351;52.284;9.160;2023-06-14T12:04:12;22.10;1.00
24207;DHT22;12351;52.284;9.160;2023-06-14T12:12:42;22.40;1.00
24207;DHT22;12351;52.284;9.160;2023-06-14T12:15:28;22.70;1.00
24207;DHT22;12351;52.284;9.160;2023-06-14T12:18:15;22.90;1.00
24207;DHT22;12351;52.284;9.160;2023-06-14T12:21:05;22.80;1.00
24207;DHT22;12351;52.284;9.160;2023-06-14T12:23:53;22.70;1.00
24207;DHT22;12351;52.284;9.160;2023-06-14T12:26:42;22.80;1.00
24207;DHT22;12351;52.284;9.160;2023-06-14T12:29:31;22.80;1.00
24207;DHT22;12351;52.284;9.160;2023-06-14T12:32:19;23.00;1.00
24207;DHT22;12351;52.284;9.160;2023-06-14T12:35:07;23.30;1.00
24207;DHT22;12351;52.284;9.160;2023-06-14T12:37:55;23.40;1.00
24207;DHT22;12351;52.284;9.160;2023-06-14T12:40:43;23.20;1.00
24207;DHT22;12351;52.284;9.160;2023-06-14T12:43:31;23.10;1.00
24207;DHT22;12351;52.284;9.160;2023-06-14T12:46:20;23.00;1.00
24207;DHT22;12351;52.284;9.160;2023-06-14T12:49:09;22.90;1.00
24207;DHT22;12351;52.284;9.160;2023-06-14T12:51:57;23.20;1.00
24207;DHT22;12351;52.284;9.160;2023-06-14T12:54:45;23.50;1.00
24207;DHT22;12351;52.284;9.160;2023-06-14T12:57:32;23.30;1.00
24207;DHT22;12351;52.284;9.160;2023-06-14T13:03:12;23.50;1.00
24207;DHT22;12351;52.284;9.160;2023-06-14T13:06:00;23.70;1.00
24207;DHT22;12351;52.284;9.160;2023-06-14T13:08:47;23.90;1.00
24207;DHT22;12351;52.284;9.160;2023-06-14T13:11:36;23.60;1.00
24207;DHT22;12351;52.284;9.160;2023-06-14T13:14:24;23.40;1.00
24207;DHT22;12351;52.284;9.160;2023-06-14T13:17:12;23.40;1.00
24207;DHT22;12351;52.284;9.160;2023-06-14T13:20:00;23.90;1.00
24207;DHT22;12351;52.284;9.160;2023-06-14T13:22:48;23.70;1.00
24207;DHT22;12351;52.284;9.160;2023-06-14T13:25:37;23.60;1.00
24207;DHT22;12351;52.284;9.160;2023-06-14T13:28:26;23.80;1.00
24207;DHT22;12351;52.284;9.160;2023-06-14T13:31:14;24.10;1.00
24207;DHT22;12351;52.284;9.160;2023-06-14T13:34:01;23.80;1.00
24207;DHT22;12351;52.284;9.160;2023-06-14T13:36:49;23.90;1.00
24207;DHT22;12351;52.284;9.160;2023-06-14T13:39:37;23.90;1.00
24207;DHT22;12351;52.284;9.160;2023-06-14T13:42:25;23.70;1.00
24207;DHT22;12351;52.284;9.160;2023-06-14T13:45:13;23.90;1.00
24207;DHT22;12351;52.284;9.160;2023-06-14T13:48:00;23.90;1.00
24207;DHT22;12351;52.284;9.160;2023-06-14T13:50:48;23.60;1.00
24207;DHT22;12351;52.284;9.160;2023-06-14T13:53:35;23.60;1.00
24207;DHT22;12351;52.284;9.160;2023-06-14T13:56:23;23.80;1.00
24207;DHT22;12351;52.284;9.160;2023-06-14T13:59:11;23.90;1.00
24207;DHT22;12351;52.284;9.160;2023-06-14T14:01:59;24.00;1.00
24207;DHT22;12351;52.284;9.160;2023-06-14T14:04:47;24.00;1.00
24207;DHT22;12351;52.284;9.160;2023-06-14T14:07:35;24.10;1.00
24207;DHT22;12351;52.284;9.160;2023-06-14T14:10:25;24.30;1.00
24207;DHT22;12351;52.284;9.160;2023-06-14T14:13:13;24.30;1.00
24207;DHT22;12351;52.284;9.160;2023-06-14T14:16:01;24.30;1.00
24207;DHT22;12351;52.284;9.160;2023-06-14T14:18:49;24.30;1.00
24207;DHT22;12351;52.284;9.160;2023-06-14T14:21:36;24.20;1.00
24207;DHT22;12351;52.284;9.160;2023-06-14T14:24:25;23.90;1.00
24207;DHT22;12351;52.284;9.160;2023-06-14T14:27:12;24.00;1.00
24207;DHT22;12351;52.284;9.160;2023-06-14T14:29:59;23.90;1.00
24207;DHT22;12351;52.284;9.160;2023-06-14T14:32:47;23.80;1.00
24207;DHT22;12351;52.284;9.160;2023-06-14T14:35:36;24.00;1.00
24207;DHT22;12351;52.284;9.160;2023-06-14T14:38:22;24.20;1.00
24207;DHT22;12351;52.284;9.160;2023-06-14T14:41:10;24.10;1.00
24207;DHT22;12351;52.284;9.160;2023-06-14T14:43:57;24.20;1.00
24207;DHT22;12351;52.284;9.160;2023-06-14T14:46:47;24.60;1.00
24207;DHT22;12351;52.284;9.160;2023-06-14T14:49:34;24.50;1.00
24207;DHT22;12351;52.284;9.160;2023-06-14T14:52:22;24.30;1.00
24207;DHT22;12351;52.284;9.160;2023-06-14T14:55:10;24.30;1.00
24207;DHT22;12351;52.284;9.160;2023-06-14T14:57:57;24.20;1.00
24207;DHT22;12351;52.284;9.160;2023-06-14T15:00:45;23.90;1.00
24207;DHT22;12351;52.284;9.160;2023-06-14T15:03:33;23.70;1.00
24207;DHT22;12351;52.284;9.160;2023-06-14T15:06:20;23.70;1.00
24207;DHT22;12351;52.284;9.160;2023-06-14T15:09:08;23.90;1.00
24207;DHT22;12351;52.284;9.160;2023-06-14T15:11:57;24.00;1.00
24207;DHT22;12351;52.284;9.160;2023-06-14T15:14:43;24.10;1.00
24207;DHT22;12351;52.284;9.160;2023-06-14T15:17:32;24.10;1.00
24207;DHT22;12351;52.284;9.160;2023-06-14T15:20:21;24.40;1.00
24207;DHT22;12351;52.284;9.160;2023-06-14T15:23:08;24.10;1.00
24207;DHT22;12351;52.284;9.160;2023-06-14T15:25:58;23.90;1.00
24207;DHT22;12351;52.284;9.160;2023-06-14T15:28:46;23.80;1.00
24207;DHT22;12351;52.284;9.160;2023-06-14T15:31:34;23.50;1.00
24207;DHT22;12351;52.284;9.160;2023-06-14T15:34:21;23.40;1.00
24207;DHT22;12351;52.284;9.160;2023-06-14T15:37:09;23.60;1.00
24207;DHT22;12351;52.284;9.160;2023-06-14T15:39:58;23.70;1.00
24207;DHT22;12351;52.284;9.160;2023-06-14T15:42:46;23.70;1.00
24207;DHT22;12351;52.284;9.160;2023-06-14T15:45:33;23.60;1.00
24207;DHT22;12351;52.284;9.160;2023-06-14T15:48:23;23.80;1.00
24207;DHT22;12351;52.284;9.160;2023-06-14T15:51:10;24.00;1.00
24207;DHT22;12351;52.284;9.160;2023-06-14T15:53:59;24.20;1.00
24207;DHT22;12351;52.284;9.160;2023-06-14T15:56:47;24.00;1.00
24207;DHT22;12351;52.284;9.160;2023-06-14T15:59:35;24.10;1.00
24207;DHT22;12351;52.284;9.160;2023-06-14T16:02:22;24.10;1.00
24207;DHT22;12351;52.284;9.160;2023-06-14T16:05:13;24.00;1.00
24207;DHT22;12351;52.284;9.160;2023-06-14T16:08:00;24.10;1.00
24207;DHT22;12351;52.284;9.160;2023-06-14T16:10:48;24.10;1.00
24207;DHT22;12351;52.284;9.160;2023-06-14T16:13:36;24.30;1.00
24207;DHT22;12351;52.284;9.160;2023-06-14T16:16:23;23.90;1.00
24207;DHT22;12351;52.284;9.160;2023-06-14T16:19:11;24.30;1.00
24207;DHT22;12351;52.284;9.160;2023-06-14T16:22:00;24.30;1.00
24207;DHT22;12351;52.284;9.160;2023-06-14T16:24:48;24.30;1.00
24207;DHT22;12351;52.284;9.160;2023-06-14T16:27:35;23.90;1.00
24207;DHT22;12351;52.284;9.160;2023-06-14T16:30:23;24.10;1.00
24207;DHT22;12351;52.284;9.160;2023-06-14T16:33:10;24.40;1.00
24207;DHT22;12351;52.284;9.160;2023-06-14T16:35:57;24.80;1.00
24207;DHT22;12351;52.284;9.160;2023-06-14T16:38:46;24.70;1.00
24207;DHT22;12351;52.284;9.160;2023-06-14T16:41:34;24.60;1.00
24207;DHT22;12351;52.284;9.160;2023-06-14T16:44:21;24.30;1.00
24207;DHT22;12351;52.284;9.160;2023-06-14T16:47:09;24.30;1.00
24207;DHT22;12351;52.284;9.160;2023-06-14T16:49:57;24.50;1.00
24207;DHT22;12351;52.284;9.160;2023-06-14T16:52:46;24.50;1.00
24207;DHT22;12351;52.284;9.160;2023-06-14T16:55:34;24.60;1.00
24207;DHT22;12351;52.284;9.160;2023-06-14T16:58:22;24.70;1.00
24207;DHT22;12351;52.284;9.160;2023-06-14T17:01:10;24.70;1.00
24207;DHT22;12351;52.284;9.160;2023-06-14T17:03:58;24.90;1.00
24207;DHT22;12351;52.284;9.160;2023-06-14T17:06:45;25.10;1.00
24207;DHT22;12351;52.284;9.160;2023-06-14T17:09:33;24.90;1.00
24207;DHT22;12351;52.284;9.160;2023-06-14T17:12:21;24.60;1.00
24207;DHT22;12351;52.284;9.160;2023-06-14T17:15:09;24.50;1.00
24207;DHT22;12351;52.284;9.160;2023-06-14T17:17:57;24.50;1.00
24207;DHT22;12351;52.284;9.160;2023-06-14T17:20:44;24.40;1.00
24207;DHT22;12351;52.284;9.160;2023-06-14T17:23:33;24.50;1.00
24207;DHT22;12351;52.284;9.160;2023-06-14T17:26:21;24.50;1.00
24207;DHT22;12351;52.284;9.160;2023-06-14T17:29:08;24.50;1.00
24207;DHT22;12351;52.284;9.160;2023-06-14T17:31:56;24.60;1.00
24207;DHT22;12351;52.284;9.160;2023-06-14T17:34:43;24.50;1.00
24207;DHT22;12351;52.284;9.160;2023-06-14T17:37:30;24.30;1.00
24207;DHT22;12351;52.284;9.160;2023-06-14T17:40:19;24.30;1.00
24207;DHT22;12351;52.284;9.160;2023-06-14T17:43:07;24.30;1.00
24207;DHT22;12351;52.284;9.160;2023-06-14T17:45:53;24.30;1.00
24207;DHT22;12351;52.284;9.160;2023-06-14T17:48:42;24.20;1.00
24207;DHT22;12351;52.284;9.160;2023-06-14T17:51:30;24.10;1.00
24207;DHT22;12351;52.284;9.160;2023-06-14T17:54:19;24.10;1.00
24207;DHT22;12351;52.284;9.160;2023-06-14T17:57:06;24.10;1.00
24207;DHT22;12351;52.284;9.160;2023-06-14T17:59:54;24.00;1.00
24207;DHT22;12351;52.284;9.160;2023-06-14T18:02:43;23.90;1.00
24207;DHT22;12351;52.284;9.160;2023-06-14T18:05:31;23.90;1.00
24207;DHT22;12351;52.284;9.160;2023-06-14T18:08:18;23.90;1.00
24207;DHT22;12351;52.284;9.160;2023-06-14T18:11:05;23.80;1.00
24207;DHT22;12351;52.284;9.160;2023-06-14T18:13:53;23.80;1.00
24207;DHT22;12351;52.284;9.160;2023-06-14T18:16:41;23.80;1.00
24207;DHT22;12351;52.284;9.160;2023-06-14T18:19:29;23.90;1.00
24207;DHT22;12351;52.284;9.160;2023-06-14T18:22:16;23.90;1.00
24207;DHT22;12351;52.284;9.160;2023-06-14T18:25:05;23.80;1.00
24207;DHT22;12351;52.284;9.160;2023-06-14T18:27:52;23.80;1.00
24207;DHT22;12351;52.284;9.160;2023-06-14T18:30:40;23.80;1.00
24207;DHT22;12351;52.284;9.160;2023-06-14T18:33:27;23.80;1.00
24207;DHT22;12351;52.284;9.160;2023-06-14T18:36:15;23.70;1.00
24207;DHT22;12351;52.284;9.160;2023-06-14T18:39:03;23.70;1.00
24207;DHT22;12351;52.284;9.160;2023-06-14T18:41:52;23.70;1.00
24207;DHT22;12351;52.284;9.160;2023-06-14T18:44:39;23.60;1.00
24207;DHT22;12351;52.284;9.160;2023-06-14T18:47:27;23.50;1.00
24207;DHT22;12351;52.284;9.160;2023-06-14T18:50:14;23.40;1.00
24207;DHT22;12351;52.284;9.160;2023-06-14T18:53:02;23.30;1.00
24207;DHT22;12351;52.284;9.160;2023-06-14T18:55:52;23.30;1.00
24207;DHT22;12351;52.284;9.160;2023-06-14T18:58:41;23.20;1.00
24207;DHT22;12351;52.284;9.160;2023-06-14T19:01:29;23.10;1.00
24207;DHT22;12351;52.284;9.160;2023-06-14T19:04:16;23.00;1.00
24207;DHT22;12351;52.284;9.160;2023-06-14T19:07:04;22.80;1.00
24207;DHT22;12351;52.284;9.160;2023-06-14T19:09:54;22.80;1.00
24207;DHT22;12351;52.284;9.160;2023-06-14T19:12:42;22.70;1.00
24207;DHT22;12351;52.284;9.160;2023-06-14T19:15:30;22.60;1.00
24207;DHT22;12351;52.284;9.160;2023-06-14T19:18:18;22.50;1.00
24207;DHT22;12351;52.284;9.160;2023-06-14T19:21:05;22.40;1.00
24207;DHT22;12351;52.284;9.160;2023-06-14T19:23:53;22.40;1.00
24207;DHT22;12351;52.284;9.160;2023-06-14T19:26:42;22.20;1.00
24207;DHT22;12351;52.284;9.160;2023-06-14T19:29:29;22.10;1.00
24207;DHT22;12351;52.284;9.160;2023-06-14T19:32:18;22.10;1.00
24207;DHT22;12351;52.284;9.160;2023-06-14T19:35:07;21.90;1.00
24207;DHT22;12351;52.284;9.160;2023-06-14T19:37:55;21.80;1.00
24207;DHT22;12351;52.284;9.160;2023-06-14T19:40:43;21.70;1.00
24207;DHT22;12351;52.284;9.160;2023-06-14T19:43:30;21.70;1.00
24207;DHT22;12351;52.284;9.160;2023-06-14T19:46:18;21.60;1.00
24207;DHT22;12351;52.284;9.160;2023-06-14T19:49:06;21.50;1.00
24207;DHT22;12351;52.284;9.160;2023-06-14T19:51:55;21.40;1.00
24207;DHT22;12351;52.284;9.160;2023-06-14T19:54:44;21.30;1.00
24207;DHT22;12351;52.284;9.160;2023-06-14T19:57:32;21.10;1.00
24207;DHT22;12351;52.284;9.160;2023-06-14T20:00:20;21.00;1.00
24207;DHT22;12351;52.284;9.160;2023-06-14T20:03:06;21.00;1.00
24207;DHT22;12351;52.284;9.160;2023-06-14T20:05:57;20.90;1.00
24207;DHT22;12351;52.284;9.160;2023-06-14T20:08:43;20.80;1.00
24207;DHT22;12351;52.284;9.160;2023-06-14T20:11:32;20.80;1.00
24207;DHT22;12351;52.284;9.160;2023-06-14T20:14:20;20.70;1.00
24207;DHT22;12351;52.284;9.160;2023-06-14T20:17:07;20.60;1.00
24207;DHT22;12351;52.284;9.160;2023-06-14T20:19:55;20.60;1.00
24207;DHT22;12351;52.284;9.160;2023-06-14T20:22:44;20.50;1.00
24207;DHT22;12351;52.284;9.160;2023-06-14T20:25:32;20.50;1.00
24207;DHT22;12351;52.284;9.160;2023-06-14T20:28:20;20.40;1.00
24207;DHT22;12351;52.284;9.160;2023-06-14T20:31:07;20.30;1.00
24207;DHT22;12351;52.284;9.160;2023-06-14T20:33:56;20.20;1.00
24207;DHT22;12351;52.284;9.160;2023-06-14T20:36:43;20.10;1.00
24207;DHT22;12351;52.284;9.160;2023-06-14T20:39:32;20.10;1.00
24207;DHT22;12351;52.284;9.160;2023-06-14T20:42:20;20.10;1.00
24207;DHT22;12351;52.284;9.160;2023-06-14T20:45:08;20.00;1.00
24207;DHT22;12351;52.284;9.160;2023-06-14T20:47:57;20.00;1.00
24207;DHT22;12351;52.284;9.160;2023-06-14T20:50:46;19.90;1.00
24207;DHT22;12351;52.284;9.160;2023-06-14T20:53:33;19.70;1.00
24207;DHT22;12351;52.284;9.160;2023-06-14T20:56:21;19.60;1.00
24207;DHT22;12351;52.284;9.160;2023-06-14T20:59:08;19.60;1.00